• Join FlightAware (Why Join?)
  • Login
  • US Flag 
11:52PM EDT


 

Airport Tracker/Info


-or-


 

Live Flight TrackerFlight Track Log ✈ SKW5162 ✈ 12-May-2013 ✈ KIAH - KMCO

Flight Track Log - Related Links

Times and Time Zones

All times are in EDT time to prevent confusion due to time zone crossing. See the SKW5162 flight status page for this flight to view local times or setup timezone preferences in your user account.

Time Position Orientation Groundspeed Altitude Reporting Facility
EDT Latitude Longitude Course Direction KTS MPH feet Rate Location/Type
12:51PM 29.9572 -95.3417 98° East 163 188 700  Level Houston Center
12:52PM 29.9483 -95.2842 100° East 202 232 2,100 1,740 Climbing Houston Center
12:52PM 29.9425 -95.2253 97° East 260 299 3,800 2,700 Climbing Houston Center
12:53PM 29.9386 -95.1892 97° East 238 274 4,900 1,260 Climbing Houston Center
12:53PM 29.9356 -95.1514 95° East 259 298 5,000 60 Climbing Houston Center
12:54PM 29.9039 -94.7133 95° East  Level FlightAware Approximate
12:54PM 29.9317 -95.1061 96° East 257 296 5,000  Level Houston Center
12:54PM 29.9269 -95.0583 96° East 259 298 6,200 2,280 Climbing Houston Center
12:55PM 29.8834 -94.5582 100° East  Level FlightAware Approximate
12:55PM 29.9239 -95.0217 95° East 263 303 7,400  Level Houston Center
12:56PM 29.8608 -94.4033 98° East  Level FlightAware Approximate
12:56PM 29.9169 -94.9317 95° East 277 319 10,000  Level Houston Center
12:57PM 29.9094 -94.8297 95° East 314 361 11,300 1,560 Climbing Houston Center
12:58PM 29.8981 -94.7139 96° East 351 404 13,200 1,860 Climbing Houston Center
12:59PM 29.8883 -94.5936 95° East 365 420 15,200 1,800 Climbing Houston Center
01:00PM 29.8778 -94.4689 96° East 378 435 17,000 1,620 Climbing Houston Center
01:01PM 29.8619 -94.3128 97° East 402 463 18,600 1,320 Climbing Houston Center
01:02PM 29.8578 -94.1731 92° East 429 494 19,800 1,740 Climbing Houston Center
01:03PM 29.8717 -94.0369 83° East 438 504 22,200 2,040 Climbing Houston Center
01:04PM 29.8931 -93.9047 79° East 426 490 24,100 1,380 Climbing Houston Center
01:05PM 29.9139 -93.7669 80° East 433 498 25,100 960 Climbing Houston Center
01:06PM 29.9361 -93.6206 80° East 456 525 26,100 1,020 Climbing Houston Center
01:07PM 29.9628 -93.4403 80° East 477 549 27,300 1,020 Climbing Houston Center
01:08PM 29.9872 -93.2861 80° East 492 566 28,300 960 Climbing Houston Center
01:09PM 30.0108 -93.1297 80° East 499 574 29,300 960 Climbing Houston Center
01:10PM 30.0353 -92.9714 80° East 505 581 30,400 1,020 Climbing Houston Center
01:11PM 30.0589 -92.8125 80° East 505 581 31,500 1,080 Climbing Houston Center
01:12PM 30.0878 -92.6208 80° East 508 585 32,700 1,020 Climbing Houston Center
01:13PM 30.1119 -92.4592 80° East 513 590 33,600 780 Climbing Houston Center
01:14PM 30.1358 -92.2969 80° East 514 592 34,400 720 Climbing Houston Center
01:15PM 30.1592 -92.1322 81° East 520 598 35,200 780 Climbing Houston Center
01:16PM 30.1833 -91.9683 80° East 519 597 36,100 840 Climbing Houston Center
01:17PM 30.2100 -91.7792 81° East 519 597 37,000 420 Climbing Houston Center
01:19PM 30.2347 -91.6156 80° East 520 598 37,000  Level Houston Center
01:20PM 30.2586 -91.4522 80° East 519 597 37,000  Level Houston Center
01:21PM 30.2808 -91.2878 81° East 517 595 37,000  Level Houston Center
01:22PM 30.3028 -91.1203 81° East 525 604 37,000  Level Houston Center
01:23PM 30.3247 -90.9492 82° East 534 615 37,000  Level Houston Center
01:24PM 30.3489 -90.7775 81° East 541 623 37,000  Level Houston Center
01:25PM 30.3764 -90.5697 81° East 543 625 37,000  Level Houston Center
01:26PM 30.3981 -90.3961 82° East 546 628 37,000  Level Houston Center
01:27PM 30.4208 -90.2239 81° East 544 626 37,000  Level Houston Center
01:28PM 30.4431 -90.0481 82° East 546 628 37,000  Level Houston Center
01:29PM 30.4661 -89.8719 81° East 546 628 37,000  Level Houston Center
01:30PM 30.4897 -89.6900 81° East 551 634 37,000  Level Houston Center
01:31PM 30.5097 -89.5133 82° East 548 631 37,000  Level Houston Center
01:32PM 30.5311 -89.3367 82° East 550 633 37,000  Level Houston Center
01:33PM 30.5511 -89.1586 83° East 555 639 37,000  Level Houston Center
01:34PM 30.5756 -88.9489 82° East 548 631 37,000  Level Houston Center
01:35PM 30.5939 -88.7839 83° East 549 632 37,000  Level Houston Center
01:36PM 30.6147 -88.6092 82° East 550 633 37,000  Level Houston Center
01:37PM 30.6353 -88.4356 82° East 549 632 37,000  Level Houston Center
01:38PM 30.6586 -88.2267 83° East 551 634 37,000  Level Houston Center
01:39PM 30.6792 -88.0528 82° East 551 634 37,000  Level Houston Center
01:40PM 30.6983 -87.8936 82° East 552 635 37,000  Level Houston Center
01:41PM 30.7153 -87.7344 83° East 543 625 37,000  Level Jacksonville Center
01:42PM 30.7342 -87.5592 83° East 543 625 37,000  Level Jacksonville Center
01:43PM 30.7531 -87.3836 83° East 543 625 37,000  Level Jacksonville Center
01:44PM 30.7717 -87.2056 83° East 548 631 37,000  Level Jacksonville Center
01:45PM 30.7925 -87.0253 82° East 553 636 37,000  Level Jacksonville Center
01:46PM 30.8125 -86.8472 83° East 558 642 37,000  Level Jacksonville Center
01:47PM 30.8286 -86.6689 84° East 558 642 37,000  Level Jacksonville Center
01:48PM 30.8233 -86.4897 92° East 553 636 37,000  Level Jacksonville Center
01:49PM 30.8239 -86.3106 90° East 553 636 37,000  Level Jacksonville Center
01:50PM 30.8244 -86.1317 90° East 553 636 37,000  Level Jacksonville Center
01:51PM 30.8228 -85.9478 91° East 553 636 37,000  Level Jacksonville Center
01:52PM 30.8206 -85.7711 91° East 553 636 37,000 -60 Level Jacksonville Center
01:53PM 30.8203 -85.5922 90° East 553 636 36,900  Descending Jacksonville Center
01:54PM 30.8200 -85.4108 90° East 553 636 37,000  Climbing Jacksonville Center
01:55PM 30.8175 -85.2147 91° East 553 636 37,000  Level Jacksonville Center
01:56PM 30.8164 -85.0358 90° East 553 636 37,000  Level Jacksonville Center
01:57PM 30.8108 -84.8567 92° East 553 636 37,000  Level Jacksonville Center
01:58PM 30.7717 -84.6867 105° East 539 620 37,000  Level Jacksonville Center
01:59PM 30.7153 -84.5283 112° Southeast 539 620 37,000  Level Jacksonville Center
02:00PM 30.6567 -84.3681 113° Southeast 534 615 37,000  Level Jacksonville Center
02:01PM 30.5981 -84.2056 113° Southeast 541 623 37,000  Level Jacksonville Center
02:02PM 30.5553 -84.0769 111° Southeast 541 623 37,000 -540 Level Jacksonville Center
02:03PM 30.4983 -83.9075 111° Southeast 530 610 36,000 -1,560 Descending Jacksonville Center
02:04PM 30.4392 -83.7383 112° Southeast 542 624 33,900 -2,220 Descending Jacksonville Center
02:05PM 30.3794 -83.5717 113° Southeast 553 636 31,600 -2,340 Descending Jacksonville Center
02:06PM 30.3197 -83.4050 113° Southeast 559 643 29,300 -2,340 Descending Jacksonville Center
02:07PM 30.2619 -83.2436 112° Southeast 554 638 27,000 -1,200 Descending Jacksonville Center
02:08PM 30.2100 -83.0922 112° Southeast 529 609 27,000 -180 Level Jacksonville Center
02:09PM 30.1517 -82.9358 113° Southeast 522 601 26,700 -960 Descending Jacksonville Center
02:10PM 30.0953 -82.7844 113° Southeast 516 594 25,100 -900 Descending Jacksonville Center
02:11PM 30.0408 -82.6358 113° Southeast 516 594 25,000 -60 Descending Jacksonville Center
02:12PM 29.9714 -82.4706 116° Southeast 511 588 25,000  Level Jacksonville Center
02:13PM 29.8564 -82.3919 149° Southeast 463 533 25,000 -960 Level Jacksonville Center
02:14PM 29.7308 -82.3353 159° South 470 541 23,100 -1,980 Descending Jacksonville Center
02:15PM 29.6178 -82.2572 149° Southeast 476 548 21,100 -1,560 Descending Jacksonville Center
02:16PM 29.5131 -82.1767 146° Southeast 466 536 20,000 -900 Descending Jacksonville Center
02:17PM 29.4206 -82.0797 138° Southeast 461 531 19,300 -1,260 Descending Jacksonville Center
02:18PM 29.3219 -82.0233 153° Southeast 456 525 17,500 -2,100 Descending Jacksonville Center
02:19PM 29.2089 -81.9506 151° Southeast 435 501 15,200 -2,280 Descending Jacksonville Center
02:20PM 29.1039 -81.8897 153° Southeast 421 484 13,000 -1,620 Descending Jacksonville Center
02:21PM 29.0053 -81.8361 155° Southeast 406 467 12,000 -840 Descending Jacksonville Center
02:22PM 28.9422 -81.7608 134° Southeast 354 407 11,400 -1,140 Descending Jacksonville Center
02:23PM 28.8914 -81.6925 130° Southeast 336 387 9,800 -1,200 Descending Jacksonville Center
02:24PM 28.8447 -81.6150 124° Southeast 316 364 9,000 -1,020 Descending Jacksonville Center
02:25PM 28.8167 -81.5500 116° Southeast 268 308 8,100 -1,440 Descending Orlando TRACON
02:26PM 28.7667 -81.4833 131° Southeast 266 306 6,600 -1,440 Descending Orlando TRACON
02:27PM 28.7167 -81.4167 131° Southeast 256 295 5,300 -1,440 Descending Orlando TRACON
02:28PM 28.6667 -81.4000 164° South 236 272 3,800 -1,200 Descending Orlando TRACON
02:29PM 28.6000 -81.3667 156° South 228 262 3,000 -840 Descending Orlando TRACON